createdAt,value
2023-04-06T00:01:46.788Z,6.60
2023-04-06T00:04:31.874Z,4.82
2023-04-06T00:07:17.148Z,4.22
2023-04-06T00:10:03.665Z,4.85
2023-04-06T00:12:48.949Z,4.75
2023-04-06T00:15:35.005Z,4.85
2023-04-06T00:18:20.680Z,4.97
2023-04-06T00:21:06.152Z,4.32
2023-04-06T00:23:51.628Z,4.60
2023-04-06T00:26:36.652Z,4.18
2023-04-06T00:29:22.242Z,4.28
2023-04-06T00:32:07.394Z,4.40
2023-04-06T00:34:52.860Z,4.70
2023-04-06T00:37:38.345Z,4.43
2023-04-06T00:40:23.722Z,4.68
2023-04-06T00:43:11.779Z,4.07
2023-04-06T00:45:56.928Z,3.92
2023-04-06T00:48:42.189Z,4.30
2023-04-06T00:51:28.160Z,4.60
2023-04-06T00:54:13.493Z,4.95
2023-04-06T00:56:59.063Z,4.70
2023-04-06T00:59:45.493Z,6.40
2023-04-06T01:02:31.138Z,5.32
2023-04-06T01:05:16.520Z,4.57
2023-04-06T01:08:01.976Z,4.15
2023-04-06T01:10:47.553Z,4.70
2023-04-06T01:13:33.589Z,4.10
2023-04-06T01:16:19.031Z,4.90
2023-04-06T01:19:12.058Z,4.63
2023-04-06T01:21:57.588Z,4.30
2023-04-06T01:24:42.986Z,3.90
2023-04-06T01:27:30.746Z,3.83
2023-04-06T01:30:17.218Z,4.50
2023-04-06T01:33:02.500Z,4.50
2023-04-06T01:35:47.952Z,4.38
2023-04-06T01:38:33.355Z,4.20
2023-04-06T01:41:18.722Z,3.75
2023-04-06T01:44:04.230Z,4.47
2023-04-06T01:46:49.598Z,4.25
2023-04-06T01:49:35.070Z,3.72
2023-04-06T01:52:21.885Z,3.80
2023-04-06T01:55:07.603Z,3.53
2023-04-06T01:57:52.808Z,4.32
2023-04-06T02:00:38.209Z,4.45
2023-04-06T02:03:23.548Z,4.30
2023-04-06T02:06:08.837Z,4.50
2023-04-06T02:08:54.180Z,4.18
2023-04-06T02:11:39.645Z,4.72
2023-04-06T02:14:28.407Z,5.55
2023-04-06T02:17:13.621Z,5.07
2023-04-06T02:19:59.154Z,5.07
2023-04-06T02:22:45.126Z,4.65
2023-04-06T02:25:30.446Z,4.57
2023-04-06T02:28:15.751Z,4.30
2023-04-06T02:31:01.101Z,4.55
2023-04-06T02:33:46.557Z,3.72
2023-04-06T02:36:31.997Z,4.18
2023-04-06T02:39:18.238Z,3.95
2023-04-06T02:42:03.554Z,4.05
2023-04-06T02:44:49.015Z,4.32
2023-04-06T02:47:34.910Z,4.07
2023-04-06T02:50:20.060Z,4.75
2023-04-06T02:53:05.405Z,4.38
2023-04-06T02:55:50.787Z,3.55
2023-04-06T02:58:36.255Z,3.83
2023-04-06T03:01:21.594Z,4.50
2023-04-06T03:04:06.812Z,3.88
2023-04-06T03:06:52.825Z,4.70
2023-04-06T03:09:39.497Z,3.85
2023-04-06T03:12:24.495Z,3.97
2023-04-06T03:15:10.780Z,4.10
2023-04-06T03:17:56.757Z,4.35
2023-04-06T03:20:43.815Z,3.88
2023-04-06T03:23:29.073Z,5.15
2023-04-06T03:26:14.450Z,3.70
2023-04-06T03:28:59.927Z,4.20
2023-04-06T03:31:45.430Z,3.78
2023-04-06T03:34:31.013Z,4.38
2023-04-06T03:37:16.105Z,4.47
2023-04-06T03:40:01.641Z,3.78
2023-04-06T03:42:46.897Z,3.65
2023-04-06T03:45:32.214Z,4.25
2023-04-06T03:48:17.488Z,5.93
2023-04-06T03:51:02.783Z,4.22
2023-04-06T03:53:48.439Z,4.25
2023-04-06T03:56:33.906Z,4.30
2023-04-06T03:59:19.347Z,4.43
2023-04-06T04:02:04.750Z,4.20
2023-04-06T04:04:50.310Z,4.60
2023-04-06T04:07:35.353Z,3.85
2023-04-06T04:10:20.724Z,3.88
2023-04-06T04:13:06.298Z,4.03
2023-04-06T04:15:51.701Z,3.95
2023-04-06T04:18:37.602Z,3.90
2023-04-06T04:21:23.267Z,4.22
2023-04-06T04:24:08.622Z,3.70
2023-04-06T04:26:53.939Z,3.42
2023-04-06T04:29:39.290Z,4.07
2023-04-06T04:32:28.214Z,3.50
2023-04-06T04:35:14.493Z,4.28
2023-04-06T04:37:59.840Z,3.50
2023-04-06T04:40:45.353Z,4.05
2023-04-06T04:43:32.751Z,3.90
2023-04-06T04:46:18.406Z,4.57
2023-04-06T04:49:03.595Z,3.40
2023-04-06T04:51:49.032Z,4.40
2023-04-06T04:54:34.329Z,4.15
2023-04-06T04:57:19.706Z,4.13
2023-04-06T05:00:09.090Z,3.83
2023-04-06T05:02:54.400Z,4.68
2023-04-06T05:05:39.746Z,4.85
2023-04-06T05:08:25.040Z,4.68
2023-04-06T05:11:10.911Z,5.68
2023-04-06T05:13:56.805Z,4.38
2023-04-06T05:16:42.109Z,4.15
2023-04-06T05:19:27.548Z,5.35
2023-04-06T05:22:15.129Z,4.80
2023-04-06T05:25:00.177Z,5.15
2023-04-06T05:27:45.850Z,4.10
2023-04-06T05:30:31.179Z,4.97
2023-04-06T05:33:16.729Z,4.18
2023-04-06T05:36:02.209Z,4.28
2023-04-06T05:38:47.934Z,4.15
2023-04-06T05:41:33.331Z,4.72
2023-04-06T05:44:18.657Z,4.07
2023-04-06T05:47:03.988Z,4.30
2023-04-06T05:49:49.269Z,4.50
2023-04-06T05:52:34.680Z,5.13
2023-04-06T05:55:20.112Z,4.70
2023-04-06T05:58:05.548Z,4.60
2023-04-06T06:00:50.929Z,4.38
2023-04-06T06:03:36.201Z,4.88
2023-04-06T06:06:21.765Z,4.82
2023-04-06T06:09:07.388Z,4.45
2023-04-06T06:11:52.881Z,4.93
2023-04-06T06:14:38.312Z,4.60
2023-04-06T06:17:23.721Z,5.10
2023-04-06T06:20:09.574Z,4.45
2023-04-06T06:22:54.862Z,5.05
2023-04-06T06:25:40.559Z,5.10
2023-04-06T06:28:26.349Z,4.68
2023-04-06T06:31:11.517Z,5.03
2023-04-06T06:33:57.037Z,5.10
2023-04-06T06:36:42.777Z,4.75
2023-04-06T06:39:27.888Z,5.70
2023-04-06T06:42:14.674Z,4.88
2023-04-06T06:45:00.299Z,5.28
2023-04-06T06:47:45.974Z,5.32
2023-04-06T06:50:31.564Z,5.18
2023-04-06T06:53:17.000Z,4.90
2023-04-06T06:56:02.569Z,5.50
2023-04-06T06:58:48.657Z,5.25
2023-04-06T07:01:35.730Z,4.97
2023-04-06T07:04:21.639Z,4.25
2023-04-06T07:07:07.005Z,4.80
2023-04-06T07:09:52.485Z,4.18
2023-04-06T07:12:37.909Z,3.55
2023-04-06T07:15:23.661Z,3.53
2023-04-06T07:18:08.848Z,3.58
2023-04-06T07:20:54.072Z,3.20
2023-04-06T07:23:39.976Z,4.50
2023-04-06T07:26:25.512Z,3.42
2023-04-06T07:29:10.538Z,3.17
2023-04-06T07:31:56.376Z,3.38
2023-04-06T07:34:41.683Z,3.90
2023-04-06T07:37:27.068Z,4.35
2023-04-06T07:40:12.561Z,3.33
2023-04-06T07:42:58.159Z,3.17
2023-04-06T07:45:43.585Z,3.25
2023-04-06T07:48:28.902Z,2.88
2023-04-06T07:51:15.925Z,3.20
2023-04-06T07:54:01.163Z,2.88
2023-04-06T07:56:46.439Z,3.70
2023-04-06T07:59:31.917Z,3.13
2023-04-06T08:02:17.224Z,3.70
2023-04-06T08:05:02.636Z,3.35
2023-04-06T08:07:47.890Z,3.28
2023-04-06T08:10:35.392Z,4.57
2023-04-06T08:13:21.088Z,3.65
2023-04-06T08:16:06.462Z,4.00
2023-04-06T08:18:51.906Z,3.75
2023-04-06T08:21:37.271Z,3.25
2023-04-06T08:24:22.904Z,3.88
2023-04-06T08:27:08.692Z,4.00
2023-04-06T08:29:53.713Z,4.03
2023-04-06T08:32:39.133Z,5.93
2023-04-06T08:35:24.347Z,4.13
2023-04-06T08:38:09.744Z,3.55
2023-04-06T08:40:55.188Z,4.30
2023-04-06T08:43:50.891Z,4.18
2023-04-06T08:46:36.390Z,4.28
2023-04-06T08:49:22.531Z,3.67
2023-04-06T08:52:11.873Z,4.75
2023-04-06T08:54:57.017Z,4.10
2023-04-06T08:57:43.408Z,4.57
2023-04-06T09:00:29.934Z,4.40
2023-04-06T09:03:16.213Z,4.80
2023-04-06T09:06:01.884Z,3.88
2023-04-06T09:08:47.360Z,3.97
2023-04-06T09:11:47.809Z,4.70
2023-04-06T09:14:40.457Z,5.30
2023-04-06T09:17:28.386Z,4.45
2023-04-06T09:20:14.152Z,4.38
2023-04-06T09:22:59.673Z,4.13
2023-04-06T09:25:45.370Z,4.38
2023-04-06T09:28:30.760Z,4.35
2023-04-06T09:31:18.417Z,4.45
2023-04-06T09:34:03.500Z,4.88
2023-04-06T09:36:48.831Z,4.32
2023-04-06T09:39:34.369Z,3.88
2023-04-06T09:42:26.614Z,4.30
2023-04-06T09:45:11.916Z,4.22
2023-04-06T09:47:57.747Z,4.13
2023-04-06T09:50:43.244Z,4.10
2023-04-06T09:53:32.288Z,4.78
2023-04-06T09:56:21.290Z,3.85
2023-04-06T09:59:13.931Z,5.22
2023-04-06T10:05:02.727Z,5.53
2023-04-06T10:10:43.501Z,4.35
2023-04-06T10:13:29.034Z,5.10
2023-04-06T10:16:16.115Z,4.22
2023-04-06T10:19:13.394Z,4.63
2023-04-06T10:22:00.820Z,4.80
2023-04-06T10:24:45.913Z,4.00
2023-04-06T10:27:33.478Z,4.63
2023-04-06T10:30:18.678Z,5.03
2023-04-06T10:33:14.698Z,4.15
2023-04-06T10:36:23.281Z,4.57
2023-04-06T10:39:08.449Z,4.63
2023-04-06T10:41:53.999Z,4.50
2023-04-06T10:44:44.504Z,3.92
2023-04-06T10:47:40.847Z,4.55
2023-04-06T10:50:26.340Z,4.60
2023-04-06T10:53:11.503Z,4.80
2023-04-06T10:55:57.840Z,4.65
2023-04-06T10:58:52.222Z,4.47
2023-04-06T11:01:37.358Z,4.20
2023-04-06T11:04:24.299Z,4.40
2023-04-06T11:07:09.726Z,3.67
2023-04-06T11:10:12.585Z,3.22
2023-04-06T11:13:00.285Z,3.70
2023-04-06T11:15:45.742Z,4.28
2023-04-06T11:18:32.158Z,3.95
2023-04-06T11:21:17.890Z,4.00
2023-04-06T11:24:17.055Z,3.90
2023-04-06T11:27:02.260Z,3.80
2023-04-06T11:29:48.202Z,4.20
2023-04-06T11:32:43.236Z,4.20
2023-04-06T11:35:28.274Z,3.72
2023-04-06T11:38:13.666Z,3.90
2023-04-06T11:40:59.202Z,3.90
2023-04-06T11:43:48.814Z,4.03
2023-04-06T11:46:34.257Z,4.18
2023-04-06T11:49:19.720Z,4.00
2023-04-06T11:52:23.200Z,3.95
2023-04-06T11:55:19.471Z,4.13
2023-04-06T11:58:04.910Z,4.35
2023-04-06T12:00:50.276Z,4.43
2023-04-06T12:03:35.780Z,4.22
2023-04-06T12:06:21.050Z,3.78
2023-04-06T12:09:06.656Z,3.78
2023-04-06T12:11:51.929Z,3.75
2023-04-06T12:14:37.301Z,4.03
2023-04-06T12:17:22.865Z,4.20
2023-04-06T12:20:18.048Z,4.07
2023-04-06T12:23:07.808Z,3.97
2023-04-06T12:25:53.470Z,4.18
2023-04-06T12:28:38.721Z,3.95
2023-04-06T12:31:26.352Z,3.85
2023-04-06T12:34:11.733Z,3.95
2023-04-06T12:36:57.703Z,3.78
2023-04-06T12:39:45.319Z,4.47
2023-04-06T12:42:30.561Z,3.97
2023-04-06T12:45:16.014Z,4.30
2023-04-06T12:48:01.358Z,3.90
2023-04-06T12:51:02.198Z,3.72
2023-04-06T12:53:47.543Z,3.40
2023-04-06T12:56:33.626Z,3.70
2023-04-06T12:59:18.829Z,5.05
2023-04-06T13:02:04.832Z,3.30
2023-04-06T13:04:51.117Z,4.35
2023-04-06T13:07:36.314Z,3.60
2023-04-06T13:10:21.733Z,3.70
2023-04-06T13:13:07.200Z,3.80
2023-04-06T13:15:53.449Z,3.45
2023-04-06T13:18:39.795Z,3.50
2023-04-06T13:21:25.882Z,3.47
2023-04-06T13:24:11.182Z,3.20
2023-04-06T13:26:56.822Z,3.90
2023-04-06T13:29:42.116Z,3.75
2023-04-06T13:32:27.485Z,3.70
2023-04-06T13:35:13.138Z,3.35
2023-04-06T13:37:58.394Z,3.72
2023-04-06T13:40:43.916Z,4.18
2023-04-06T13:43:29.137Z,3.85
2023-04-06T13:46:14.577Z,3.47
2023-04-06T13:48:59.917Z,3.50
2023-04-06T13:51:45.360Z,3.58
2023-04-06T13:54:30.934Z,3.60
2023-04-06T13:57:16.198Z,3.70
2023-04-06T14:00:02.880Z,3.92
2023-04-06T14:02:50.859Z,3.58
2023-04-06T14:05:36.156Z,3.67
2023-04-06T14:08:21.868Z,3.47
2023-04-06T14:11:11.326Z,3.53
2023-04-06T14:13:58.346Z,3.75
2023-04-06T14:16:47.835Z,3.67
2023-04-06T14:19:33.276Z,3.83
2023-04-06T14:22:18.747Z,2.90
2023-04-06T14:25:04.298Z,3.95
2023-04-06T14:27:49.616Z,3.05
2023-04-06T14:30:35.224Z,4.38
2023-04-06T14:33:20.382Z,3.35
2023-04-06T14:36:06.531Z,3.75
2023-04-06T14:38:51.660Z,3.72
2023-04-06T14:41:37.066Z,3.70
2023-04-06T14:44:22.561Z,3.53
2023-04-06T14:47:08.076Z,4.13
2023-04-06T14:49:54.327Z,3.58
2023-04-06T14:52:39.337Z,3.45
2023-04-06T14:55:24.663Z,3.30
2023-04-06T14:58:09.951Z,3.00
2023-04-06T15:01:02.291Z,3.53
2023-04-06T15:06:33.897Z,3.58
2023-04-06T15:09:19.285Z,3.25
2023-04-06T15:12:04.808Z,2.95
2023-04-06T15:14:49.837Z,3.30
2023-04-06T15:17:35.344Z,3.78
2023-04-06T15:20:20.552Z,3.40
2023-04-06T15:23:05.839Z,3.15
2023-04-06T15:25:51.705Z,3.60
2023-04-06T15:28:36.978Z,4.18
2023-04-06T15:31:33.574Z,3.80
2023-04-06T15:34:22.657Z,4.07
2023-04-06T15:37:08.850Z,3.72
2023-04-06T15:39:53.990Z,3.35
2023-04-06T15:42:39.321Z,3.60
2023-04-06T15:45:25.013Z,3.85
2023-04-06T15:48:10.344Z,3.70
2023-04-06T15:50:58.565Z,4.05
2023-04-06T15:53:44.691Z,3.35
2023-04-06T15:56:30.364Z,3.40
2023-04-06T15:59:16.758Z,3.35
2023-04-06T16:02:02.642Z,4.15
2023-04-06T16:04:47.724Z,4.00
2023-04-06T16:07:34.572Z,3.47
2023-04-06T16:10:19.616Z,4.45
2023-04-06T16:13:05.011Z,3.63
2023-04-06T16:15:51.156Z,3.78
2023-04-06T16:18:36.755Z,3.97
2023-04-06T16:21:22.131Z,3.45
2023-04-06T16:24:08.504Z,4.25
2023-04-06T16:26:53.958Z,3.97
2023-04-06T16:29:39.412Z,4.82
2023-04-06T16:32:24.782Z,3.90
2023-04-06T16:35:10.702Z,3.90
2023-04-06T16:37:56.003Z,3.90
2023-04-06T16:40:41.594Z,3.95
2023-04-06T16:43:27.343Z,3.95
2023-04-06T16:46:12.788Z,3.55
2023-04-06T16:48:59.514Z,4.25
2023-04-06T16:51:44.674Z,3.97
2023-04-06T16:54:29.927Z,4.18
2023-04-06T16:57:15.732Z,3.55
2023-04-06T17:00:02.927Z,4.00
2023-04-06T17:02:48.438Z,3.97
2023-04-06T17:05:34.791Z,4.13
2023-04-06T17:08:20.211Z,4.32
2023-04-06T17:11:05.820Z,3.92
2023-04-06T17:13:51.030Z,3.55
2023-04-06T17:16:36.348Z,3.97
2023-04-06T17:19:21.626Z,4.03
2023-04-06T17:22:06.980Z,4.03
2023-04-06T17:24:52.401Z,4.15
2023-04-06T17:27:37.773Z,4.05
2023-04-06T17:30:23.452Z,3.92
2023-04-06T17:33:09.916Z,5.32
2023-04-06T17:35:55.406Z,4.40
2023-04-06T17:38:43.942Z,4.18
2023-04-06T17:41:32.538Z,4.20
2023-04-06T17:44:18.169Z,3.72
2023-04-06T17:47:03.545Z,3.67
2023-04-06T17:49:49.802Z,3.40
2023-04-06T17:52:36.018Z,3.83
2023-04-06T17:55:22.390Z,3.20
2023-04-06T17:58:07.672Z,3.00
2023-04-06T18:00:53.149Z,4.25
2023-04-06T18:03:38.732Z,3.67
2023-04-06T18:06:25.659Z,4.07
2023-04-06T18:09:11.408Z,4.28
2023-04-06T18:11:57.155Z,4.82
2023-04-06T18:14:42.903Z,4.00
2023-04-06T18:17:28.532Z,4.10
2023-04-06T18:20:15.164Z,4.55
2023-04-06T18:23:00.951Z,4.82
2023-04-06T18:25:46.370Z,4.63
2023-04-06T18:28:31.871Z,4.00
2023-04-06T18:31:17.553Z,5.03
2023-04-06T18:34:03.428Z,4.35
2023-04-06T18:36:48.707Z,5.82
2023-04-06T18:39:34.111Z,4.70
2023-04-06T18:42:19.609Z,4.57
2023-04-06T18:45:05.569Z,4.90
2023-04-06T18:47:51.016Z,4.70
2023-04-06T18:50:36.372Z,5.22
2023-04-06T18:53:21.808Z,6.07
2023-04-06T18:56:14.936Z,5.65
2023-04-06T19:01:50.959Z,6.68
2023-04-06T19:04:36.339Z,6.93
2023-04-06T19:07:22.239Z,6.82
2023-04-06T19:10:08.799Z,6.25
2023-04-06T19:12:54.296Z,5.60
2023-04-06T19:15:43.991Z,5.95
2023-04-06T19:18:29.242Z,6.65
2023-04-06T19:21:19.675Z,6.10
2023-04-06T19:24:05.017Z,5.78
2023-04-06T19:26:50.509Z,6.50
2023-04-06T19:29:38.435Z,5.65
2023-04-06T19:32:23.986Z,5.90
2023-04-06T19:35:09.745Z,5.53
2023-04-06T19:37:55.612Z,5.10
2023-04-06T19:40:40.931Z,6.10
2023-04-06T19:43:26.706Z,4.78
2023-04-06T19:46:11.912Z,5.25
2023-04-06T19:48:57.264Z,5.63
2023-04-06T19:51:43.711Z,5.07
2023-04-06T19:54:29.175Z,6.57
2023-04-06T19:57:15.322Z,5.45
2023-04-06T20:00:00.352Z,5.90
2023-04-06T20:02:46.234Z,6.43
2023-04-06T20:05:31.705Z,5.55
2023-04-06T20:08:17.074Z,8.52
2023-04-06T20:11:04.554Z,9.13
2023-04-06T20:13:49.997Z,10.90
2023-04-06T20:16:35.580Z,9.88
2023-04-06T20:19:20.609Z,8.93
2023-04-06T20:22:05.909Z,9.55
2023-04-06T20:24:51.578Z,8.38
2023-04-06T20:27:36.810Z,8.27
2023-04-06T20:30:22.392Z,8.05
2023-04-06T20:33:07.824Z,6.63
2023-04-06T20:36:01.194Z,5.90
2023-04-06T20:38:46.296Z,5.85
2023-04-06T20:41:31.609Z,7.18
2023-04-06T20:44:18.192Z,6.47
2023-04-06T20:47:04.298Z,6.55
2023-04-06T20:49:50.100Z,6.35
2023-04-06T20:52:35.269Z,7.07
2023-04-06T20:55:20.707Z,6.72
2023-04-06T20:58:05.922Z,5.68
2023-04-06T21:00:51.641Z,6.05
2023-04-06T21:03:36.828Z,6.15
2023-04-06T21:06:22.046Z,6.38
2023-04-06T21:09:07.485Z,7.10
2023-04-06T21:11:52.915Z,6.35
2023-04-06T21:14:38.123Z,6.43
2023-04-06T21:17:24.035Z,5.90
2023-04-06T21:20:10.115Z,7.03
2023-04-06T21:22:55.394Z,6.10
2023-04-06T21:25:40.704Z,6.38
2023-04-06T21:28:26.784Z,6.43
2023-04-06T21:31:11.960Z,5.20
2023-04-06T21:33:57.198Z,4.72
2023-04-06T21:36:42.725Z,5.43
2023-04-06T21:39:28.039Z,5.22
2023-04-06T21:42:13.496Z,4.60
2023-04-06T21:44:59.162Z,4.93
2023-04-06T21:47:45.588Z,4.70
2023-04-06T21:50:30.995Z,5.18
2023-04-06T21:53:16.237Z,4.97
2023-04-06T21:56:02.613Z,4.93
2023-04-06T21:58:48.185Z,4.93
2023-04-06T22:01:33.617Z,4.95
2023-04-06T22:04:19.163Z,5.20
2023-04-06T22:07:04.857Z,4.55
2023-04-06T22:09:53.738Z,5.32
2023-04-06T22:12:39.439Z,4.57
2023-04-06T22:15:24.785Z,4.40
2023-04-06T22:18:10.214Z,5.30
2023-04-06T22:20:55.995Z,4.63
2023-04-06T22:23:42.547Z,5.07
2023-04-06T22:26:28.222Z,5.68
2023-04-06T22:29:13.591Z,4.75
2023-04-06T22:31:59.056Z,6.22
2023-04-06T22:34:44.661Z,5.03
2023-04-06T22:37:29.729Z,5.35
2023-04-06T22:40:15.359Z,5.80
2023-04-06T22:43:00.425Z,5.40
2023-04-06T22:45:46.025Z,4.97
2023-04-06T22:48:31.206Z,5.07
2023-04-06T22:51:16.680Z,4.95
2023-04-06T22:54:02.205Z,5.00
2023-04-06T22:56:47.776Z,5.05
2023-04-06T22:59:32.778Z,5.20
2023-04-06T23:02:18.217Z,5.07
2023-04-06T23:05:03.560Z,5.03
2023-04-06T23:07:48.907Z,5.70
2023-04-06T23:10:34.151Z,6.25
2023-04-06T23:13:19.572Z,4.25
2023-04-06T23:16:05.168Z,6.60
2023-04-06T23:18:50.385Z,5.18
2023-04-06T23:21:36.024Z,4.53
2023-04-06T23:24:21.213Z,4.57
2023-04-06T23:27:06.551Z,4.43
2023-04-06T23:29:51.761Z,4.63
2023-04-06T23:32:37.343Z,4.78
2023-04-06T23:35:22.610Z,4.93
2023-04-06T23:38:08.020Z,4.45
2023-04-06T23:40:53.522Z,4.78
2023-04-06T23:43:38.852Z,4.50
2023-04-06T23:46:24.367Z,4.80
2023-04-06T23:49:09.706Z,5.18
2023-04-06T23:51:55.013Z,4.47
2023-04-06T23:54:40.504Z,5.75
2023-04-06T23:57:26.083Z,4.90
